sensor_id;sensor_type;location;lat;lon;timestamp;noise_LAeq;noise_LA_min;noise_LA_max;noise_LA01;noise_LA95
66456;Laerm;56833;52.254;5.598;2023-06-24T00:00:06;45.60;43.72;49.91;;
66456;Laerm;56833;52.254;5.598;2023-06-24T00:00:17;46.04;43.89;48.29;;
66456;Laerm;56833;52.254;5.598;2023-06-24T00:00:29;45.82;43.17;48.34;;
66456;Laerm;56833;52.254;5.598;2023-06-24T00:00:39;45.51;43.47;50.99;;
66456;Laerm;56833;52.254;5.598;2023-06-24T00:00:49;45.42;43.76;49.21;;
66456;Laerm;56833;52.254;5.598;2023-06-24T00:01:02;45.38;43.65;50.07;;
66456;Laerm;56833;52.254;5.598;2023-06-24T00:01:12;45.33;43.14;47.48;;
66456;Laerm;56833;52.254;5.598;2023-06-24T00:01:23;45.29;43.56;47.79;;
66456;Laerm;56833;52.254;5.598;2023-06-24T00:01:33;45.28;43.11;51.98;;
66456;Laerm;56833;52.254;5.598;2023-06-24T00:01:44;45.05;43.68;50.81;;
66456;Laerm;56833;52.254;5.598;2023-06-24T00:01:54;44.71;43.35;46.90;;
66456;Laerm;56833;52.254;5.598;2023-06-24T00:02:05;45.11;43.42;52.69;;
66456;Laerm;56833;52.254;5.598;2023-06-24T00:02:15;44.68;43.49;46.74;;
66456;Laerm;56833;52.254;5.598;2023-06-24T00:02:26;45.24;43.74;49.72;;
66456;Laerm;56833;52.254;5.598;2023-06-24T00:02:36;46.28;43.59;52.92;;
66456;Laerm;56833;52.254;5.598;2023-06-24T00:02:47;46.79;43.65;52.77;;
66456;Laerm;56833;52.254;5.598;2023-06-24T00:02:57;45.14;43.44;49.69;;
66456;Laerm;56833;52.254;5.598;2023-06-24T00:03:11;45.19;43.27;57.58;;
66456;Laerm;56833;52.254;5.598;2023-06-24T00:03:22;44.74;43.28;48.56;;
66456;Laerm;56833;52.254;5.598;2023-06-24T00:03:32;45.01;43.36;48.85;;
66456;Laerm;56833;52.254;5.598;2023-06-24T00:03:47;45.24;43.43;47.17;;
66456;Laerm;56833;52.254;5.598;2023-06-24T00:03:58;45.08;43.54;47.16;;
66456;Laerm;56833;52.254;5.598;2023-06-24T00:04:08;44.92;43.42;49.21;;
66456;Laerm;56833;52.254;5.598;2023-06-24T00:04:18;45.04;43.60;46.85;;
66456;Laerm;56833;52.254;5.598;2023-06-24T00:04:30;45.34;43.56;48.23;;
66456;Laerm;56833;52.254;5.598;2023-06-24T00:04:41;45.31;43.52;48.68;;
66456;Laerm;56833;52.254;5.598;2023-06-24T00:04:51;45.13;43.50;49.67;;
66456;Laerm;56833;52.254;5.598;2023-06-24T00:05:04;45.18;43.16;47.69;;
66456;Laerm;56833;52.254;5.598;2023-06-24T00:05:15;45.80;43.58;51.05;;
66456;Laerm;56833;52.254;5.598;2023-06-24T00:05:26;46.18;43.73;53.66;;
66456;Laerm;56833;52.254;5.598;2023-06-24T00:05:36;45.68;43.28;50.80;;
66456;Laerm;56833;52.254;5.598;2023-06-24T00:05:48;45.57;43.67;55.87;;
66456;Laerm;56833;52.254;5.598;2023-06-24T00:05:59;45.41;43.13;57.51;;
66456;Laerm;56833;52.254;5.598;2023-06-24T00:06:13;45.42;43.25;51.05;;
66456;Laerm;56833;52.254;5.598;2023-06-24T00:06:28;45.40;43.12;53.36;;
66456;Laerm;56833;52.254;5.598;2023-06-24T00:06:38;45.91;43.51;52.67;;
66456;Laerm;56833;52.254;5.598;2023-06-24T00:06:49;45.13;43.09;48.87;;
66456;Laerm;56833;52.254;5.598;2023-06-24T00:07:02;45.17;43.50;47.59;;
66456;Laerm;56833;52.254;5.598;2023-06-24T00:07:12;45.85;43.94;53.68;;
66456;Laerm;56833;52.254;5.598;2023-06-24T00:07:22;45.60;43.59;52.80;;
66456;Laerm;56833;52.254;5.598;2023-06-24T00:07:33;45.14;43.53;50.76;;
66456;Laerm;56833;52.254;5.598;2023-06-24T00:07:46;45.43;43.51;48.61;;
66456;Laerm;56833;52.254;5.598;2023-06-24T00:07:57;45.97;43.85;51.41;;
66456;Laerm;56833;52.254;5.598;2023-06-24T00:08:07;45.73;44.15;49.78;;
66456;Laerm;56833;52.254;5.598;2023-06-24T00:08:18;46.49;44.56;50.02;;
66456;Laerm;56833;52.254;5.598;2023-06-24T00:08:32;46.14;43.86;54.25;;
66456;Laerm;56833;52.254;5.598;2023-06-24T00:08:49;45.40;43.07;49.06;;
66456;Laerm;56833;52.254;5.598;2023-06-24T00:08:59;45.16;43.68;52.87;;
66456;Laerm;56833;52.254;5.598;2023-06-24T00:09:12;47.19;43.46;59.94;;
66456;Laerm;56833;52.254;5.598;2023-06-24T00:09:23;45.86;43.84;49.58;;
66456;Laerm;56833;52.254;5.598;2023-06-24T00:09:33;45.18;43.44;47.63;;
66456;Laerm;56833;52.254;5.598;2023-06-24T00:09:43;45.65;43.65;50.17;;
66456;Laerm;56833;52.254;5.598;2023-06-24T00:09:53;46.42;43.34;56.77;;
66456;Laerm;56833;52.254;5.598;2023-06-24T00:10:04;47.33;43.83;53.83;;
66456;Laerm;56833;52.254;5.598;2023-06-24T00:10:17;45.80;43.66;53.92;;
66456;Laerm;56833;52.254;5.598;2023-06-24T00:10:27;44.99;43.47;48.30;;
66456;Laerm;56833;52.254;5.598;2023-06-24T00:10:37;44.85;43.44;49.61;;
66456;Laerm;56833;52.254;5.598;2023-06-24T00:10:48;45.00;43.30;53.61;;
66456;Laerm;56833;52.254;5.598;2023-06-24T00:10:58;45.47;43.21;60.27;;
66456;Laerm;56833;52.254;5.598;2023-06-24T00:11:09;49.18;43.66;55.06;;
66456;Laerm;56833;52.254;5.598;2023-06-24T00:11:19;49.79;43.59;56.60;;
66456;Laerm;56833;52.254;5.598;2023-06-24T00:11:29;49.70;43.88;54.81;;
66456;Laerm;56833;52.254;5.598;2023-06-24T00:11:39;49.63;43.85;60.92;;
66456;Laerm;56833;52.254;5.598;2023-06-24T00:11:50;49.42;43.87;53.78;;
66456;Laerm;56833;52.254;5.598;2023-06-24T00:12:01;50.02;44.31;54.76;;
66456;Laerm;56833;52.254;5.598;2023-06-24T00:12:11;49.82;44.03;55.10;;
66456;Laerm;56833;52.254;5.598;2023-06-24T00:12:28;50.25;44.35;55.10;;
66456;Laerm;56833;52.254;5.598;2023-06-24T00:12:39;50.88;43.81;55.30;;
66456;Laerm;56833;52.254;5.598;2023-06-24T00:12:49;46.33;43.66;60.44;;
66456;Laerm;56833;52.254;5.598;2023-06-24T00:12:59;45.08;43.80;47.86;;
66456;Laerm;56833;52.254;5.598;2023-06-24T00:13:15;51.22;43.21;62.79;;
66456;Laerm;56833;52.254;5.598;2023-06-24T00:13:26;53.80;42.85;64.02;;
66456;Laerm;56833;52.254;5.598;2023-06-24T00:13:36;53.52;43.65;64.62;;
66456;Laerm;56833;52.254;5.598;2023-06-24T00:13:47;52.67;43.57;63.04;;
66456;Laerm;56833;52.254;5.598;2023-06-24T00:13:57;53.31;43.96;63.16;;
66456;Laerm;56833;52.254;5.598;2023-06-24T00:14:07;53.44;43.99;63.28;;
66456;Laerm;56833;52.254;5.598;2023-06-24T00:14:18;53.90;44.15;73.49;;
66456;Laerm;56833;52.254;5.598;2023-06-24T00:14:28;50.43;44.13;64.76;;
66456;Laerm;56833;52.254;5.598;2023-06-24T00:14:38;48.47;44.22;55.16;;
66456;Laerm;56833;52.254;5.598;2023-06-24T00:14:49;48.02;44.67;63.57;;
66456;Laerm;56833;52.254;5.598;2023-06-24T00:15:00;48.90;45.90;53.65;;
66456;Laerm;56833;52.254;5.598;2023-06-24T00:15:10;47.03;44.93;51.55;;
66456;Laerm;56833;52.254;5.598;2023-06-24T00:15:21;48.19;44.63;60.90;;
66456;Laerm;56833;52.254;5.598;2023-06-24T00:15:31;69.73;44.33;86.47;;
66456;Laerm;56833;52.254;5.598;2023-06-24T00:15:41;55.08;44.78;74.33;;
66456;Laerm;56833;52.254;5.598;2023-06-24T00:15:52;56.35;47.90;64.80;;
66456;Laerm;56833;52.254;5.598;2023-06-24T00:16:03;59.21;48.25;73.39;;
66456;Laerm;56833;52.254;5.598;2023-06-24T00:16:13;56.76;48.44;65.07;;
66456;Laerm;56833;52.254;5.598;2023-06-24T00:16:24;57.75;47.65;70.79;;
66456;Laerm;56833;52.254;5.598;2023-06-24T00:16:37;57.30;47.83;64.32;;
66456;Laerm;56833;52.254;5.598;2023-06-24T00:16:47;55.28;47.46;64.26;;
66456;Laerm;56833;52.254;5.598;2023-06-24T00:17:01;52.81;47.31;70.77;;
66456;Laerm;56833;52.254;5.598;2023-06-24T00:17:11;51.14;47.12;57.65;;
66456;Laerm;56833;52.254;5.598;2023-06-24T00:17:21;52.17;48.52;57.94;;
66456;Laerm;56833;52.254;5.598;2023-06-24T00:17:32;58.85;45.78;70.76;;
66456;Laerm;56833;52.254;5.598;2023-06-24T00:17:42;54.95;44.56;67.32;;
66456;Laerm;56833;52.254;5.598;2023-06-24T00:17:52;59.01;43.98;68.11;;
66456;Laerm;56833;52.254;5.598;2023-06-24T00:18:02;51.58;43.01;62.30;;
66456;Laerm;56833;52.254;5.598;2023-06-24T00:18:16;48.68;43.42;62.16;;
66456;Laerm;56833;52.254;5.598;2023-06-24T00:18:26;47.27;43.89;55.09;;
66456;Laerm;56833;52.254;5.598;2023-06-24T00:18:39;49.11;43.35;56.86;;
66456;Laerm;56833;52.254;5.598;2023-06-24T00:18:51;46.53;44.01;54.34;;
66456;Laerm;56833;52.254;5.598;2023-06-24T00:19:03;46.22;43.74;51.05;;
66456;Laerm;56833;52.254;5.598;2023-06-24T00:19:13;48.37;44.55;54.47;;
66456;Laerm;56833;52.254;5.598;2023-06-24T00:19:24;47.92;44.48;57.89;;
66456;Laerm;56833;52.254;5.598;2023-06-24T00:19:34;46.93;44.08;50.75;;
66456;Laerm;56833;52.254;5.598;2023-06-24T00:19:45;46.00;43.73;58.25;;
66456;Laerm;56833;52.254;5.598;2023-06-24T00:19:55;49.26;43.82;58.81;;
66456;Laerm;56833;52.254;5.598;2023-06-24T00:20:05;45.63;43.48;49.53;;
66456;Laerm;56833;52.254;5.598;2023-06-24T00:20:18;47.02;43.59;55.58;;
66456;Laerm;56833;52.254;5.598;2023-06-24T00:20:30;45.86;43.77;50.44;;
66456;Laerm;56833;52.254;5.598;2023-06-24T00:20:40;46.50;43.51;56.96;;
66456;Laerm;56833;52.254;5.598;2023-06-24T00:20:53;46.10;43.79;55.27;;
66456;Laerm;56833;52.254;5.598;2023-06-24T00:21:03;45.62;44.11;47.21;;
66456;Laerm;56833;52.254;5.598;2023-06-24T00:21:14;45.43;43.88;48.30;;
66456;Laerm;56833;52.254;5.598;2023-06-24T00:21:27;45.56;43.30;49.43;;
66456;Laerm;56833;52.254;5.598;2023-06-24T00:21:39;45.74;43.56;52.62;;
66456;Laerm;56833;52.254;5.598;2023-06-24T00:21:51;50.74;43.83;65.30;;
66456;Laerm;56833;52.254;5.598;2023-06-24T00:22:02;51.34;43.98;62.29;;
66456;Laerm;56833;52.254;5.598;2023-06-24T00:22:13;50.22;44.01;60.03;;
66456;Laerm;56833;52.254;5.598;2023-06-24T00:22:24;46.83;44.56;51.68;;
66456;Laerm;56833;52.254;5.598;2023-06-24T00:22:34;49.57;44.62;58.48;;
66456;Laerm;56833;52.254;5.598;2023-06-24T00:22:45;47.60;44.36;59.11;;
66456;Laerm;56833;52.254;5.598;2023-06-24T00:22:58;46.17;44.15;53.54;;
66456;Laerm;56833;52.254;5.598;2023-06-24T00:23:08;46.10;44.28;49.32;;
66456;Laerm;56833;52.254;5.598;2023-06-24T00:23:20;46.65;44.38;53.00;;
66456;Laerm;56833;52.254;5.598;2023-06-24T00:23:34;46.27;44.34;49.23;;
66456;Laerm;56833;52.254;5.598;2023-06-24T00:23:45;53.56;44.59;65.19;;
66456;Laerm;56833;52.254;5.598;2023-06-24T00:23:58;57.18;43.92;66.16;;
66456;Laerm;56833;52.254;5.598;2023-06-24T00:24:08;55.49;44.42;65.90;;
66456;Laerm;56833;52.254;5.598;2023-06-24T00:24:19;49.86;44.35;63.19;;
66456;Laerm;56833;52.254;5.598;2023-06-24T00:24:31;48.87;44.12;58.86;;
66456;Laerm;56833;52.254;5.598;2023-06-24T00:24:41;49.54;44.49;59.12;;
66456;Laerm;56833;52.254;5.598;2023-06-24T00:24:52;49.50;44.59;56.50;;
66456;Laerm;56833;52.254;5.598;2023-06-24T00:25:03;50.19;44.64;56.99;;
66456;Laerm;56833;52.254;5.598;2023-06-24T00:25:15;49.77;44.93;55.51;;
66456;Laerm;56833;52.254;5.598;2023-06-24T00:25:25;50.06;45.33;58.85;;
66456;Laerm;56833;52.254;5.598;2023-06-24T00:25:36;54.78;44.80;74.53;;
66456;Laerm;56833;52.254;5.598;2023-06-24T00:25:46;50.28;45.62;64.03;;
66456;Laerm;56833;52.254;5.598;2023-06-24T00:25:56;49.23;45.52;54.96;;
66456;Laerm;56833;52.254;5.598;2023-06-24T00:26:07;48.25;43.71;53.53;;
66456;Laerm;56833;52.254;5.598;2023-06-24T00:26:17;45.91;44.20;50.00;;
66456;Laerm;56833;52.254;5.598;2023-06-24T00:26:27;50.21;44.34;68.37;;
66456;Laerm;56833;52.254;5.598;2023-06-24T00:26:38;47.37;44.72;51.20;;
66456;Laerm;56833;52.254;5.598;2023-06-24T00:26:48;47.45;45.06;51.85;;
66456;Laerm;56833;52.254;5.598;2023-06-24T00:26:58;47.29;44.52;56.98;;
66456;Laerm;56833;52.254;5.598;2023-06-24T00:27:09;48.00;44.26;58.89;;
66456;Laerm;56833;52.254;5.598;2023-06-24T00:27:19;51.16;45.74;57.35;;
66456;Laerm;56833;52.254;5.598;2023-06-24T00:27:29;55.08;44.79;76.19;;
66456;Laerm;56833;52.254;5.598;2023-06-24T00:27:40;46.17;44.00;50.41;;
66456;Laerm;56833;52.254;5.598;2023-06-24T00:27:51;45.87;43.75;51.47;;
66456;Laerm;56833;52.254;5.598;2023-06-24T00:28:01;45.85;43.94;50.31;;
66456;Laerm;56833;52.254;5.598;2023-06-24T00:28:11;46.12;43.94;50.98;;
66456;Laerm;56833;52.254;5.598;2023-06-24T00:28:22;46.63;44.20;58.26;;
66456;Laerm;56833;52.254;5.598;2023-06-24T00:28:32;54.32;45.21;68.96;;
66456;Laerm;56833;52.254;5.598;2023-06-24T00:28:43;53.15;49.47;63.77;;
66456;Laerm;56833;52.254;5.598;2023-06-24T00:28:53;53.15;45.08;63.51;;
66456;Laerm;56833;52.254;5.598;2023-06-24T00:29:04;58.08;44.92;74.66;;
66456;Laerm;56833;52.254;5.598;2023-06-24T00:29:14;52.98;45.08;69.76;;
66456;Laerm;56833;52.254;5.598;2023-06-24T00:29:25;50.52;44.87;62.02;;
66456;Laerm;56833;52.254;5.598;2023-06-24T00:29:35;48.48;44.49;62.34;;
66456;Laerm;56833;52.254;5.598;2023-06-24T00:29:45;47.09;44.03;60.13;;
66456;Laerm;56833;52.254;5.598;2023-06-24T00:29:56;47.69;43.87;58.97;;
66456;Laerm;56833;52.254;5.598;2023-06-24T00:30:06;47.53;44.77;56.91;;
66456;Laerm;56833;52.254;5.598;2023-06-24T00:30:17;47.36;44.60;52.60;;
66456;Laerm;56833;52.254;5.598;2023-06-24T00:30:27;47.54;44.85;57.13;;
66456;Laerm;56833;52.254;5.598;2023-06-24T00:30:37;47.02;44.75;56.82;;
66456;Laerm;56833;52.254;5.598;2023-06-24T00:30:48;47.23;45.08;52.18;;
66456;Laerm;56833;52.254;5.598;2023-06-24T00:30:58;46.43;44.45;51.53;;
66456;Laerm;56833;52.254;5.598;2023-06-24T00:31:09;52.29;44.45;64.45;;
66456;Laerm;56833;52.254;5.598;2023-06-24T00:31:19;47.99;44.63;52.42;;
66456;Laerm;56833;52.254;5.598;2023-06-24T00:31:30;48.91;45.11;60.89;;
66456;Laerm;56833;52.254;5.598;2023-06-24T00:31:41;47.92;45.67;51.32;;
66456;Laerm;56833;52.254;5.598;2023-06-24T00:31:51;47.90;44.70;58.47;;
66456;Laerm;56833;52.254;5.598;2023-06-24T00:32:02;48.66;45.43;51.45;;
66456;Laerm;56833;52.254;5.598;2023-06-24T00:32:12;48.69;44.27;54.34;;
66456;Laerm;56833;52.254;5.598;2023-06-24T00:32:22;49.06;44.44;51.90;;
66456;Laerm;56833;52.254;5.598;2023-06-24T00:32:32;50.48;45.82;58.68;;
66456;Laerm;56833;52.254;5.598;2023-06-24T00:32:43;50.26;45.30;55.54;;
66456;Laerm;56833;52.254;5.598;2023-06-24T00:32:53;48.86;45.23;51.16;;
66456;Laerm;56833;52.254;5.598;2023-06-24T00:33:03;48.62;45.26;52.00;;
66456;Laerm;56833;52.254;5.598;2023-06-24T00:33:14;49.00;45.87;52.21;;
66456;Laerm;56833;52.254;5.598;2023-06-24T00:33:24;49.07;45.58;53.47;;
66456;Laerm;56833;52.254;5.598;2023-06-24T00:33:34;49.91;46.55;54.38;;
66456;Laerm;56833;52.254;5.598;2023-06-24T00:33:46;49.22;44.76;52.94;;
66456;Laerm;56833;52.254;5.598;2023-06-24T00:33:56;48.65;44.08;51.87;;
66456;Laerm;56833;52.254;5.598;2023-06-24T00:34:07;48.16;44.63;55.14;;
66456;Laerm;56833;52.254;5.598;2023-06-24T00:34:17;48.13;44.74;59.37;;
66456;Laerm;56833;52.254;5.598;2023-06-24T00:34:30;48.48;44.58;51.91;;
66456;Laerm;56833;52.254;5.598;2023-06-24T00:34:40;48.40;44.67;50.96;;
66456;Laerm;56833;52.254;5.598;2023-06-24T00:34:53;48.94;45.00;57.36;;
66456;Laerm;56833;52.254;5.598;2023-06-24T00:35:08;48.61;45.02;51.37;;
66456;Laerm;56833;52.254;5.598;2023-06-24T00:35:18;49.33;44.85;52.30;;
66456;Laerm;56833;52.254;5.598;2023-06-24T00:35:28;50.13;46.37;60.47;;
66456;Laerm;56833;52.254;5.598;2023-06-24T00:35:41;50.06;46.12;56.11;;
66456;Laerm;56833;52.254;5.598;2023-06-24T00:35:53;48.90;45.36;51.89;;
66456;Laerm;56833;52.254;5.598;2023-06-24T00:36:03;49.04;45.19;51.32;;
66456;Laerm;56833;52.254;5.598;2023-06-24T00:36:13;48.78;45.52;51.06;;
66456;Laerm;56833;52.254;5.598;2023-06-24T00:36:24;48.65;44.84;50.69;;
66456;Laerm;56833;52.254;5.598;2023-06-24T00:36:34;48.55;44.95;50.99;;
66456;Laerm;56833;52.254;5.598;2023-06-24T00:36:48;48.21;44.94;58.14;;
66456;Laerm;56833;52.254;5.598;2023-06-24T00:36:58;48.18;43.88;57.68;;
66456;Laerm;56833;52.254;5.598;2023-06-24T00:37:09;47.71;44.83;50.78;;
66456;Laerm;56833;52.254;5.598;2023-06-24T00:37:19;48.86;45.29;51.50;;
66456;Laerm;56833;52.254;5.598;2023-06-24T00:37:29;48.76;44.79;57.85;;
66456;Laerm;56833;52.254;5.598;2023-06-24T00:37:40;48.59;46.10;50.73;;
66456;Laerm;56833;52.254;5.598;2023-06-24T00:37:51;49.18;44.79;57.20;;
66456;Laerm;56833;52.254;5.598;2023-06-24T00:38:08;49.22;44.58;59.00;;
66456;Laerm;56833;52.254;5.598;2023-06-24T00:38:18;51.47;45.67;55.27;;
66456;Laerm;56833;52.254;5.598;2023-06-24T00:38:28;47.71;44.86;56.02;;
66456;Laerm;56833;52.254;5.598;2023-06-24T00:38:42;48.35;44.86;61.35;;
66456;Laerm;56833;52.254;5.598;2023-06-24T00:38:52;47.46;44.86;50.71;;
66456;Laerm;56833;52.254;5.598;2023-06-24T00:39:03;46.79;44.75;50.80;;
66456;Laerm;56833;52.254;5.598;2023-06-24T00:39:13;47.11;44.52;49.35;;
66456;Laerm;56833;52.254;5.598;2023-06-24T00:39:24;47.91;45.03;55.11;;
66456;Laerm;56833;52.254;5.598;2023-06-24T00:39:34;50.05;45.23;62.75;;
66456;Laerm;56833;52.254;5.598;2023-06-24T00:39:44;52.95;45.07;63.97;;
66456;Laerm;56833;52.254;5.598;2023-06-24T00:39:54;48.05;44.35;59.06;;
66456;Laerm;56833;52.254;5.598;2023-06-24T00:40:05;49.92;46.32;52.94;;
66456;Laerm;56833;52.254;5.598;2023-06-24T00:40:15;49.32;46.29;52.14;;
66456;Laerm;56833;52.254;5.598;2023-06-24T00:40:26;48.98;45.88;51.75;;
66456;Laerm;56833;52.254;5.598;2023-06-24T00:40:37;48.55;45.05;52.07;;
66456;Laerm;56833;52.254;5.598;2023-06-24T00:40:48;49.45;45.85;54.90;;
66456;Laerm;56833;52.254;5.598;2023-06-24T00:40:58;49.39;45.82;53.46;;
66456;Laerm;56833;52.254;5.598;2023-06-24T00:41:09;46.42;43.97;52.07;;
66456;Laerm;56833;52.254;5.598;2023-06-24T00:41:19;47.18;43.97;58.58;;
66456;Laerm;56833;52.254;5.598;2023-06-24T00:41:30;47.79;45.12;58.34;;
66456;Laerm;56833;52.254;5.598;2023-06-24T00:41:41;48.56;44.95;57.79;;
66456;Laerm;56833;52.254;5.598;2023-06-24T00:41:52;51.48;45.07;62.05;;
66456;Laerm;56833;52.254;5.598;2023-06-24T00:42:02;50.47;45.38;63.65;;
66456;Laerm;56833;52.254;5.598;2023-06-24T00:42:13;52.59;45.46;71.32;;
66456;Laerm;56833;52.254;5.598;2023-06-24T00:42:23;48.45;45.34;53.78;;
66456;Laerm;56833;52.254;5.598;2023-06-24T00:42:33;53.84;45.36;66.58;;
66456;Laerm;56833;52.254;5.598;2023-06-24T00:42:44;53.68;47.17;65.69;;
66456;Laerm;56833;52.254;5.598;2023-06-24T00:42:55;49.71;45.17;59.53;;
66456;Laerm;56833;52.254;5.598;2023-06-24T00:43:06;50.58;45.97;63.53;;
66456;Laerm;56833;52.254;5.598;2023-06-24T00:43:17;50.55;46.19;58.27;;
66456;Laerm;56833;52.254;5.598;2023-06-24T00:43:28;48.96;45.42;54.81;;
66456;Laerm;56833;52.254;5.598;2023-06-24T00:43:39;48.76;45.59;61.78;;
66456;Laerm;56833;52.254;5.598;2023-06-24T00:43:50;48.65;45.70;55.90;;
66456;Laerm;56833;52.254;5.598;2023-06-24T00:44:00;48.52;45.63;53.10;;
66456;Laerm;56833;52.254;5.598;2023-06-24T00:44:11;48.71;45.73;59.60;;
66456;Laerm;56833;52.254;5.598;2023-06-24T00:44:21;49.77;45.56;57.19;;
66456;Laerm;56833;52.254;5.598;2023-06-24T00:44:32;49.83;45.36;54.82;;
66456;Laerm;56833;52.254;5.598;2023-06-24T00:44:42;50.13;45.78;55.34;;
66456;Laerm;56833;52.254;5.598;2023-06-24T00:44:53;49.52;45.69;57.35;;
66456;Laerm;56833;52.254;5.598;2023-06-24T00:45:03;54.93;45.95;64.42;;
66456;Laerm;56833;52.254;5.598;2023-06-24T00:45:14;53.04;46.28;64.25;;
66456;Laerm;56833;52.254;5.598;2023-06-24T00:45:27;53.01;46.08;72.37;;
66456;Laerm;56833;52.254;5.598;2023-06-24T00:45:40;51.94;47.18;56.90;;
66456;Laerm;56833;52.254;5.598;2023-06-24T00:45:50;52.56;48.04;58.16;;
66456;Laerm;56833;52.254;5.598;2023-06-24T00:46:03;55.31;45.31;73.20;;
66456;Laerm;56833;52.254;5.598;2023-06-24T00:46:13;52.05;48.09;63.98;;
66456;Laerm;56833;52.254;5.598;2023-06-24T00:46:25;54.29;46.05;72.11;;
66456;Laerm;56833;52.254;5.598;2023-06-24T00:46:35;55.71;47.52;72.99;;
66456;Laerm;56833;52.254;5.598;2023-06-24T00:46:46;56.43;44.69;73.11;;
66456;Laerm;56833;52.254;5.598;2023-06-24T00:46:56;53.31;47.09;70.26;;
66456;Laerm;56833;52.254;5.598;2023-06-24T00:47:07;49.75;44.81;68.75;;
66456;Laerm;56833;52.254;5.598;2023-06-24T00:47:18;47.63;43.54;63.80;;
66456;Laerm;56833;52.254;5.598;2023-06-24T00:47:28;48.65;44.83;57.29;;
66456;Laerm;56833;52.254;5.598;2023-06-24T00:47:41;47.08;44.34;54.17;;
66456;Laerm;56833;52.254;5.598;2023-06-24T00:47:51;53.80;44.47;74.29;;
66456;Laerm;56833;52.254;5.598;2023-06-24T00:48:01;48.88;44.90;65.57;;
66456;Laerm;56833;52.254;5.598;2023-06-24T00:48:13;53.10;44.54;73.75;;
66456;Laerm;56833;52.254;5.598;2023-06-24T00:48:23;48.66;44.64;59.26;;
66456;Laerm;56833;52.254;5.598;2023-06-24T00:48:34;54.79;44.60;63.62;;
66456;Laerm;56833;52.254;5.598;2023-06-24T00:48:44;51.16;45.09;66.13;;
66456;Laerm;56833;52.254;5.598;2023-06-24T00:48:55;50.95;44.90;60.28;;
66456;Laerm;56833;52.254;5.598;2023-06-24T00:49:05;51.02;45.56;62.84;;
66456;Laerm;56833;52.254;5.598;2023-06-24T00:49:16;47.46;45.32;53.89;;
66456;Laerm;56833;52.254;5.598;2023-06-24T00:49:26;47.27;45.54;49.76;;
66456;Laerm;56833;52.254;5.598;2023-06-24T00:49:36;47.40;45.20;49.43;;
66456;Laerm;56833;52.254;5.598;2023-06-24T00:49:47;56.72;43.71;77.17;;
66456;Laerm;56833;52.254;5.598;2023-06-24T00:49:58;69.28;42.82;85.12;;
66456;Laerm;56833;52.254;5.598;2023-06-24T00:50:08;60.21;42.51;79.95;;
66456;Laerm;56833;52.254;5.598;2023-06-24T00:50:22;59.85;42.53;80.36;;
66456;Laerm;56833;52.254;5.598;2023-06-24T00:50:32;52.20;46.55;60.36;;
66456;Laerm;56833;52.254;5.598;2023-06-24T00:50:42;50.42;45.14;59.33;;
66456;Laerm;56833;52.254;5.598;2023-06-24T00:50:55;48.02;45.28;54.19;;
66456;Laerm;56833;52.254;5.598;2023-06-24T00:51:08;48.37;45.65;51.99;;
66456;Laerm;56833;52.254;5.598;2023-06-24T00:51:19;48.58;45.48;57.83;;
66456;Laerm;56833;52.254;5.598;2023-06-24T00:51:31;48.44;46.23;52.72;;
66456;Laerm;56833;52.254;5.598;2023-06-24T00:51:42;48.72;46.21;53.36;;
66456;Laerm;56833;52.254;5.598;2023-06-24T00:51:57;46.90;43.87;51.14;;
66456;Laerm;56833;52.254;5.598;2023-06-24T00:52:11;46.01;43.89;50.23;;
66456;Laerm;56833;52.254;5.598;2023-06-24T00:52:25;46.48;43.49;51.83;;
66456;Laerm;56833;52.254;5.598;2023-06-24T00:52:36;46.80;43.61;59.73;;
66456;Laerm;56833;52.254;5.598;2023-06-24T00:52:47;46.93;43.80;56.65;;
66456;Laerm;56833;52.254;5.598;2023-06-24T00:52:59;46.31;43.78;57.33;;
66456;Laerm;56833;52.254;5.598;2023-06-24T00:53:09;46.20;43.96;51.74;;
66456;Laerm;56833;52.254;5.598;2023-06-24T00:53:19;48.48;44.10;57.01;;
66456;Laerm;56833;52.254;5.598;2023-06-24T00:53:34;48.94;44.19;56.34;;
66456;Laerm;56833;52.254;5.598;2023-06-24T00:53:45;46.61;44.71;50.99;;
66456;Laerm;56833;52.254;5.598;2023-06-24T00:53:58;47.06;44.64;54.60;;
66456;Laerm;56833;52.254;5.598;2023-06-24T00:54:08;47.10;44.08;56.34;;
66456;Laerm;56833;52.254;5.598;2023-06-24T00:54:19;45.63;44.12;49.30;;
66456;Laerm;56833;52.254;5.598;2023-06-24T00:54:29;45.64;43.37;49.13;;
66456;Laerm;56833;52.254;5.598;2023-06-24T00:54:44;45.74;44.29;48.57;;
66456;Laerm;56833;52.254;5.598;2023-06-24T00:54:54;46.16;44.05;49.57;;
66456;Laerm;56833;52.254;5.598;2023-06-24T00:55:06;46.76;44.62;49.37;;
66456;Laerm;56833;52.254;5.598;2023-06-24T00:55:16;46.36;44.28;48.68;;
66456;Laerm;56833;52.254;5.598;2023-06-24T00:55:27;46.42;44.49;60.38;;
66456;Laerm;56833;52.254;5.598;2023-06-24T00:55:39;46.32;44.19;55.91;;
66456;Laerm;56833;52.254;5.598;2023-06-24T00:55:49;46.23;44.20;54.46;;
66456;Laerm;56833;52.254;5.598;2023-06-24T00:55:59;46.41;44.27;49.56;;
66456;Laerm;56833;52.254;5.598;2023-06-24T00:56:12;46.33;44.50;49.84;;
66456;Laerm;56833;52.254;5.598;2023-06-24T00:56:31;46.63;44.08;56.56;;
66456;Laerm;56833;52.254;5.598;2023-06-24T00:56:43;46.23;44.02;49.97;;
66456;Laerm;56833;52.254;5.598;2023-06-24T00:56:53;46.24;44.52;48.57;;
66456;Laerm;56833;52.254;5.598;2023-06-24T00:57:05;47.78;44.04;61.10;;
66456;Laerm;56833;52.254;5.598;2023-06-24T00:57:16;47.72;44.97;60.13;;
66456;Laerm;56833;52.254;5.598;2023-06-24T00:57:27;47.26;44.57;57.00;;
66456;Laerm;56833;52.254;5.598;2023-06-24T00:57:39;49.31;45.07;55.97;;
66456;Laerm;56833;52.254;5.598;2023-06-24T00:57:50;48.06;44.21;51.67;;
66456;Laerm;56833;52.254;5.598;2023-06-24T00:58:01;46.73;44.60;52.76;;
66456;Laerm;56833;52.254;5.598;2023-06-24T00:58:12;50.76;45.96;53.06;;
66456;Laerm;56833;52.254;5.598;2023-06-24T00:58:26;51.47;47.33;59.22;;
66456;Laerm;56833;52.254;5.598;2023-06-24T00:58:37;51.31;47.07;56.33;;
66456;Laerm;56833;52.254;5.598;2023-06-24T00:58:49;51.44;46.75;61.22;;
66456;Laerm;56833;52.254;5.598;2023-06-24T00:59:00;51.21;46.21;53.49;;
66456;Laerm;56833;52.254;5.598;2023-06-24T00:59:13;51.53;47.30;58.24;;
66456;Laerm;56833;52.254;5.598;2023-06-24T00:59:24;51.88;48.06;63.36;;
66456;Laerm;56833;52.254;5.598;2023-06-24T00:59:39;51.46;46.23;58.87;;
66456;Laerm;56833;52.254;5.598;2023-06-24T00:59:50;48.66;45.72;62.42;;
66456;Laerm;56833;52.254;5.598;2023-06-24T01:00:04;48.60;45.72;58.28;;
66456;Laerm;56833;52.254;5.598;2023-06-24T01:00:21;50.16;45.36;64.12;;
66456;Laerm;56833;52.254;5.598;2023-06-24T01:00:31;49.01;46.92;52.18;;
66456;Laerm;56833;52.254;5.598;2023-06-24T01:00:44;49.71;46.07;61.61;;
66456;Laerm;56833;52.254;5.598;2023-06-24T01:00:55;49.60;44.63;61.16;;
66456;Laerm;56833;52.254;5.598;2023-06-24T01:01:07;49.60;46.03;63.74;;
66456;Laerm;56833;52.254;5.598;2023-06-24T01:01:19;49.82;45.10;58.17;;
66456;Laerm;56833;52.254;5.598;2023-06-24T01:01:31;51.28;48.27;55.22;;
66456;Laerm;56833;52.254;5.598;2023-06-24T01:01:43;51.41;47.09;62.84;;
66456;Laerm;56833;52.254;5.598;2023-06-24T01:01:55;52.05;48.17;62.47;;
66456;Laerm;56833;52.254;5.598;2023-06-24T01:02:05;51.91;47.85;62.56;;
66456;Laerm;56833;52.254;5.598;2023-06-24T01:02:16;51.23;46.53;61.49;;